sensor_id;sensor_type;location;lat;lon;timestamp;P1;durP1;ratioP1;P2;durP2;ratioP2
50651;SDS011;66928;52.086;5.240;2023-01-19T06:27:12;13.5;;;3.5;;
50651;SDS011;66928;52.086;5.240;2023-01-19T06:28:49;9.21;;;2.8;;
50651;SDS011;66928;52.086;5.240;2023-01-19T06:30:26;12.2;;;3.1;;
50651;SDS011;66928;52.086;5.240;2023-01-19T06:33:40;12.1;;;3.0;;
50651;SDS011;66928;52.086;5.240;2023-01-19T06:35:17;13.7;;;3.1;;
50651;SDS011;66928;52.086;5.240;2023-01-19T06:36:53;12.3;;;3.0;;
50651;SDS011;66928;52.086;5.240;2023-01-19T06:40:06;9.81;;;2.8;;
50651;SDS011;66928;52.086;5.240;2023-01-19T06:41:44;13.7;;;3.5;;
50651;SDS011;66928;52.086;5.240;2023-01-19T06:43:21;14.2;;;3.3;;
50651;SDS011;66928;52.086;5.240;2023-01-19T06:44:57;12.0;;;3.5;;
50651;SDS011;66928;52.086;5.240;2023-01-19T06:48:10;12.8;;;3.4;;
50651;SDS011;66928;52.086;5.240;2023-01-19T06:49:48;11.8;;;3.3;;
50651;SDS011;66928;52.086;5.240;2023-01-19T06:51:24;12.4;;;3.6;;
50651;SDS011;66928;52.086;5.240;2023-01-19T06:54:37;9.31;;;3.4;;
50651;SDS011;66928;52.086;5.240;2023-01-19T06:56:14;9.4;;;3.2;;
50651;SDS011;66928;52.086;5.240;2023-01-19T06:57:54;14.8;;;3.7;;
50651;SDS011;66928;52.086;5.240;2023-01-19T06:59:31;12.1;;;3.5;;
50651;SDS011;66928;52.086;5.240;2023-01-19T07:02:44;16.3;;;4.0;;
50651;SDS011;66928;52.086;5.240;2023-01-19T07:04:21;14.3;;;4.0;;
50651;SDS011;66928;52.086;5.240;2023-01-19T07:05:59;12.9;;;3.9;;
50651;SDS011;66928;52.086;5.240;2023-01-19T07:09:16;13.2;;;3.6;;
50651;SDS011;66928;52.086;5.240;2023-01-19T07:10:57;9.6;;;3.6;;
50651;SDS011;66928;52.086;5.240;2023-01-19T07:12:34;12.2;;;3.6;;
50651;SDS011;66928;52.086;5.240;2023-01-19T07:14:11;9.5;;;3.3;;
50651;SDS011;66928;52.086;5.240;2023-01-19T07:17:23;14.5;;;4.1;;
50651;SDS011;66928;52.086;5.240;2023-01-19T07:18:59;14.5;;;4.2;;
50651;SDS011;66928;52.086;5.240;2023-01-19T07:20:36;11.6;;;3.6;;
50651;SDS011;66928;52.086;5.240;2023-01-19T07:23:50;16.4;;;4.0;;
50651;SDS011;66928;52.086;5.240;2023-01-19T07:25:27;11.5;;;3.9;;
50651;SDS011;66928;52.086;5.240;2023-01-19T07:27:03;13.6;;;4.61;;
50651;SDS011;66928;52.086;5.240;2023-01-19T07:30:17;13.8;;;4.5;;
50651;SDS011;66928;52.086;5.240;2023-01-19T07:31:53;15.9;;;4.2;;
50651;SDS011;66928;52.086;5.240;2023-01-19T07:33:30;17.11;;;4.2;;
50651;SDS011;66928;52.086;5.240;2023-01-19T07:35:07;14.3;;;3.8;;
50651;SDS011;66928;52.086;5.240;2023-01-19T07:38:20;12.5;;;3.9;;
50651;SDS011;66928;52.086;5.240;2023-01-19T07:39:57;14.1;;;4.3;;
50651;SDS011;66928;52.086;5.240;2023-01-19T07:41:33;11.8;;;4.41;;
50651;SDS011;66928;52.086;5.240;2023-01-19T07:44:46;11.1;;;3.8;;
50651;SDS011;66928;52.086;5.240;2023-01-19T07:46:22;13.8;;;3.7;;
50651;SDS011;66928;52.086;5.240;2023-01-19T07:48:00;15.3;;;4.0;;
50651;SDS011;66928;52.086;5.240;2023-01-19T07:51:17;15.2;;;4.2;;
50651;SDS011;66928;52.086;5.240;2023-01-19T07:52:54;14.6;;;3.9;;
50651;SDS011;66928;52.086;5.240;2023-01-19T07:54:31;11.7;;;3.7;;
50651;SDS011;66928;52.086;5.240;2023-01-19T07:56:07;19.41;;;4.61;;
50651;SDS011;66928;52.086;5.240;2023-01-19T07:59:24;13.4;;;4.0;;
50651;SDS011;66928;52.086;5.240;2023-01-19T08:01:00;15.7;;;4.41;;
50651;SDS011;66928;52.086;5.240;2023-01-19T08:02:41;16.2;;;4.5;;
50651;SDS011;66928;52.086;5.240;2023-01-19T08:04:18;15.9;;;4.7;;
50651;SDS011;66928;52.086;5.240;2023-01-19T08:07:32;14.7;;;4.0;;
50651;SDS011;66928;52.086;5.240;2023-01-19T08:09:10;17.5;;;4.61;;
50651;SDS011;66928;52.086;5.240;2023-01-19T08:10:48;18.5;;;4.41;;
50651;SDS011;66928;52.086;5.240;2023-01-19T08:14:01;16.8;;;4.41;;
50651;SDS011;66928;52.086;5.240;2023-01-19T08:15:38;16.4;;;4.2;;
50651;SDS011;66928;52.086;5.240;2023-01-19T08:17:14;18.0;;;4.2;;
50651;SDS011;66928;52.086;5.240;2023-01-19T08:20:28;13.5;;;4.0;;
50651;SDS011;66928;52.086;5.240;2023-01-19T08:22:05;14.1;;;4.3;;
50651;SDS011;66928;52.086;5.240;2023-01-19T08:23:40;12.0;;;4.0;;
50651;SDS011;66928;52.086;5.240;2023-01-19T08:25:17;14.3;;;3.8;;
50651;SDS011;66928;52.086;5.240;2023-01-19T08:28:35;13.7;;;4.1;;
50651;SDS011;66928;52.086;5.240;2023-01-19T08:30:12;14.6;;;4.5;;
50651;SDS011;66928;52.086;5.240;2023-01-19T08:31:48;14.2;;;4.1;;
50651;SDS011;66928;52.086;5.240;2023-01-19T08:35:00;15.6;;;3.9;;
50651;SDS011;66928;52.086;5.240;2023-01-19T08:36:38;16.2;;;3.9;;
50651;SDS011;66928;52.086;5.240;2023-01-19T08:38:16;14.5;;;4.0;;
50651;SDS011;66928;52.086;5.240;2023-01-19T08:39:52;15.2;;;4.1;;
50651;SDS011;66928;52.086;5.240;2023-01-19T08:43:07;14.5;;;4.1;;
50651;SDS011;66928;52.086;5.240;2023-01-19T08:44:46;12.0;;;3.4;;
50651;SDS011;66928;52.086;5.240;2023-01-19T08:46:22;11.4;;;3.6;;
50651;SDS011;66928;52.086;5.240;2023-01-19T08:49:36;14.4;;;3.5;;
50651;SDS011;66928;52.086;5.240;2023-01-19T08:51:14;12.5;;;3.8;;
50651;SDS011;66928;52.086;5.240;2023-01-19T08:52:51;12.9;;;3.2;;
50651;SDS011;66928;52.086;5.240;2023-01-19T08:54:30;11.0;;;3.3;;
50651;SDS011;66928;52.086;5.240;2023-01-19T08:57:49;10.1;;;3.6;;
50651;SDS011;66928;52.086;5.240;2023-01-19T08:59:26;9.21;;;3.1;;
50651;SDS011;66928;52.086;5.240;2023-01-19T09:01:03;12.3;;;3.4;;
50651;SDS011;66928;52.086;5.240;2023-01-19T09:04:16;12.6;;;3.6;;
50651;SDS011;66928;52.086;5.240;2023-01-19T09:05:52;11.1;;;3.1;;
50651;SDS011;66928;52.086;5.240;2023-01-19T09:07:28;10.21;;;3.2;;
50651;SDS011;66928;52.086;5.240;2023-01-19T09:10:43;11.8;;;3.0;;
50651;SDS011;66928;52.086;5.240;2023-01-19T09:12:22;9.9;;;3.3;;
50651;SDS011;66928;52.086;5.240;2023-01-19T09:13:58;10.7;;;3.0;;
50651;SDS011;66928;52.086;5.240;2023-01-19T09:15:36;10.7;;;3.3;;
50651;SDS011;66928;52.086;5.240;2023-01-19T09:18:49;8.4;;;2.8;;
50651;SDS011;66928;52.086;5.240;2023-01-19T09:20:25;7.0;;;2.8;;
50651;SDS011;66928;52.086;5.240;2023-01-19T09:22:01;9.0;;;2.7;;
50651;SDS011;66928;52.086;5.240;2023-01-19T09:25:14;8.31;;;2.9;;
50651;SDS011;66928;52.086;5.240;2023-01-19T09:26:50;11.5;;;3.1;;
50651;SDS011;66928;52.086;5.240;2023-01-19T09:28:26;9.81;;;3.0;;
50651;SDS011;66928;52.086;5.240;2023-01-19T09:30:05;10.9;;;3.1;;
50651;SDS011;66928;52.086;5.240;2023-01-19T09:33:18;9.1;;;2.9;;
50651;SDS011;66928;52.086;5.240;2023-01-19T09:34:56;11.5;;;3.3;;
50651;SDS011;66928;52.086;5.240;2023-01-19T09:36:34;10.7;;;2.8;;
50651;SDS011;66928;52.086;5.240;2023-01-19T09:39:48;10.0;;;3.0;;
50651;SDS011;66928;52.086;5.240;2023-01-19T09:41:25;7.9;;;2.6;;
50651;SDS011;66928;52.086;5.240;2023-01-19T09:43:10;9.9;;;2.7;;
50651;SDS011;66928;52.086;5.240;2023-01-19T09:44:49;9.71;;;2.6;;
50651;SDS011;66928;52.086;5.240;2023-01-19T09:48:15;6.6;;;2.7;;
50651;SDS011;66928;52.086;5.240;2023-01-19T09:50:05;9.71;;;2.8;;
50651;SDS011;66928;52.086;5.240;2023-01-19T09:51:51;10.3;;;2.9;;
50651;SDS011;66928;52.086;5.240;2023-01-19T09:53:32;8.81;;;2.8;;
50651;SDS011;66928;52.086;5.240;2023-01-19T09:55:25;7.9;;;2.9;;
50651;SDS011;66928;52.086;5.240;2023-01-19T09:58:46;8.31;;;2.6;;
50651;SDS011;66928;52.086;5.240;2023-01-19T10:00:24;8.9;;;2.8;;
50651;SDS011;66928;52.086;5.240;2023-01-19T10:02:05;9.21;;;2.7;;
50651;SDS011;66928;52.086;5.240;2023-01-19T10:04:01;8.4;;;2.7;;
50651;SDS011;66928;52.086;5.240;2023-01-19T10:05:56;10.5;;;2.6;;
50651;SDS011;66928;52.086;5.240;2023-01-19T10:09:30;9.0;;;2.5;;
50651;SDS011;66928;52.086;5.240;2023-01-19T10:11:15;8.9;;;2.5;;
50651;SDS011;66928;52.086;5.240;2023-01-19T10:13:16;8.9;;;2.4;;
50651;SDS011;66928;52.086;5.240;2023-01-19T10:15:12;9.4;;;2.4;;
50651;SDS011;66928;52.086;5.240;2023-01-19T10:17:04;11.7;;;2.8;;
50651;SDS011;66928;52.086;5.240;2023-01-19T10:18:55;9.21;;;2.7;;
50651;SDS011;66928;52.086;5.240;2023-01-19T10:20:37;9.9;;;2.8;;
50651;SDS011;66928;52.086;5.240;2023-01-19T10:24:00;7.2;;;2.4;;
50651;SDS011;66928;52.086;5.240;2023-01-19T10:25:42;8.4;;;2.7;;
50651;SDS011;66928;52.086;5.240;2023-01-19T10:27:20;9.9;;;2.8;;
50651;SDS011;66928;52.086;5.240;2023-01-19T10:29:02;6.2;;;2.4;;
50651;SDS011;66928;52.086;5.240;2023-01-19T10:32:26;8.4;;;2.6;;
50651;SDS011;66928;52.086;5.240;2023-01-19T10:34:05;9.1;;;2.9;;
50651;SDS011;66928;52.086;5.240;2023-01-19T10:35:47;12.6;;;2.9;;
50651;SDS011;66928;52.086;5.240;2023-01-19T10:37:27;8.9;;;3.2;;
50651;SDS011;66928;52.086;5.240;2023-01-19T10:39:08;8.1;;;2.7;;
50651;SDS011;66928;52.086;5.240;2023-01-19T10:42:36;7.7;;;2.5;;
50651;SDS011;66928;52.086;5.240;2023-01-19T10:44:21;9.9;;;2.9;;
50651;SDS011;66928;52.086;5.240;2023-01-19T10:45:58;9.1;;;2.6;;
50651;SDS011;66928;52.086;5.240;2023-01-19T10:51:01;7.8;;;2.7;;
50651;SDS011;66928;52.086;5.240;2023-01-19T10:52:41;8.1;;;2.6;;
50651;SDS011;66928;52.086;5.240;2023-01-19T10:54:17;7.9;;;2.21;;
50651;SDS011;66928;52.086;5.240;2023-01-19T10:56:08;6.5;;;2.4;;
50651;SDS011;66928;52.086;5.240;2023-01-19T10:59:29;7.4;;;2.6;;
50651;SDS011;66928;52.086;5.240;2023-01-19T11:01:12;8.4;;;2.8;;
50651;SDS011;66928;52.086;5.240;2023-01-19T11:02:52;6.8;;;2.5;;
50651;SDS011;66928;52.086;5.240;2023-01-19T11:04:28;7.2;;;2.5;;
50651;SDS011;66928;52.086;5.240;2023-01-19T11:07:56;6.9;;;2.5;;
50651;SDS011;66928;52.086;5.240;2023-01-19T11:09:33;7.1;;;2.31;;
50651;SDS011;66928;52.086;5.240;2023-01-19T11:11:11;6.5;;;2.21;;
50651;SDS011;66928;52.086;5.240;2023-01-19T11:12:54;8.4;;;2.6;;
50651;SDS011;66928;52.086;5.240;2023-01-19T11:18:02;8.4;;;2.5;;
50651;SDS011;66928;52.086;5.240;2023-01-19T11:19:40;8.71;;;2.8;;
50651;SDS011;66928;52.086;5.240;2023-01-19T11:21:16;8.5;;;2.5;;
50651;SDS011;66928;52.086;5.240;2023-01-19T11:24:56;9.4;;;2.4;;
50651;SDS011;66928;52.086;5.240;2023-01-19T11:26:38;9.21;;;2.6;;
50651;SDS011;66928;52.086;5.240;2023-01-19T11:28:17;7.5;;;2.4;;
50651;SDS011;66928;52.086;5.240;2023-01-19T11:30:02;6.9;;;2.21;;
50651;SDS011;66928;52.086;5.240;2023-01-19T11:31:42;8.5;;;2.31;;
50651;SDS011;66928;52.086;5.240;2023-01-19T11:35:02;8.31;;;2.21;;
50651;SDS011;66928;52.086;5.240;2023-01-19T11:37:28;7.5;;;2.31;;
50651;SDS011;66928;52.086;5.240;2023-01-19T11:39:17;8.6;;;2.6;;
50651;SDS011;66928;52.086;5.240;2023-01-19T11:40:58;5.11;;;2.1;;
50651;SDS011;66928;52.086;5.240;2023-01-19T11:42:36;8.9;;;2.1;;
50651;SDS011;66928;52.086;5.240;2023-01-19T11:44:14;6.8;;;2.4;;
50651;SDS011;66928;52.086;5.240;2023-01-19T11:47:35;5.11;;;1.8;;
50651;SDS011;66928;52.086;5.240;2023-01-19T11:49:19;6.8;;;2.21;;
50651;SDS011;66928;52.086;5.240;2023-01-19T11:51:02;5.7;;;2.1;;
50651;SDS011;66928;52.086;5.240;2023-01-19T11:52:44;5.0;;;1.8;;
50651;SDS011;66928;52.086;5.240;2023-01-19T11:54:28;5.7;;;1.8;;
50651;SDS011;66928;52.086;5.240;2023-01-19T11:57:50;6.7;;;2.0;;
50651;SDS011;66928;52.086;5.240;2023-01-19T11:59:28;4.3;;;1.8;;
50651;SDS011;66928;52.086;5.240;2023-01-19T12:01:05;5.11;;;2.31;;
50651;SDS011;66928;52.086;5.240;2023-01-19T12:02:48;5.2;;;2.0;;
50651;SDS011;66928;52.086;5.240;2023-01-19T12:06:13;7.8;;;3.0;;
50651;SDS011;66928;52.086;5.240;2023-01-19T12:07:54;4.5;;;1.8;;
50651;SDS011;66928;52.086;5.240;2023-01-19T12:09:34;5.8;;;2.1;;
50651;SDS011;66928;52.086;5.240;2023-01-19T12:11:17;6.2;;;1.7;;
50651;SDS011;66928;52.086;5.240;2023-01-19T12:14:39;5.7;;;1.8;;
50651;SDS011;66928;52.086;5.240;2023-01-19T12:16:31;5.8;;;2.0;;
50651;SDS011;66928;52.086;5.240;2023-01-19T12:18:11;5.9;;;1.9;;
50651;SDS011;66928;52.086;5.240;2023-01-19T12:19:55;4.8;;;1.8;;
50651;SDS011;66928;52.086;5.240;2023-01-19T12:21:38;5.5;;;1.7;;
50651;SDS011;66928;52.086;5.240;2023-01-19T12:25:05;5.11;;;1.8;;
50651;SDS011;66928;52.086;5.240;2023-01-19T12:26:55;6.0;;;2.0;;
50651;SDS011;66928;52.086;5.240;2023-01-19T12:28:34;3.6;;;1.8;;
50651;SDS011;66928;52.086;5.240;2023-01-19T12:30:16;4.3;;;1.8;;
50651;SDS011;66928;52.086;5.240;2023-01-19T12:34:57;4.91;;;1.8;;
50651;SDS011;66928;52.086;5.240;2023-01-19T12:36:35;6.8;;;1.9;;
50651;SDS011;66928;52.086;5.240;2023-01-19T12:40:18;5.11;;;1.9;;
50651;SDS011;66928;52.086;5.240;2023-01-19T12:42:04;4.91;;;1.8;;
50651;SDS011;66928;52.086;5.240;2023-01-19T12:43:47;5.8;;;1.8;;
50651;SDS011;66928;52.086;5.240;2023-01-19T12:45:49;4.7;;;1.8;;
50651;SDS011;66928;52.086;5.240;2023-01-19T12:47:26;4.8;;;1.7;;
50651;SDS011;66928;52.086;5.240;2023-01-19T12:49:03;4.61;;;1.8;;
50651;SDS011;66928;52.086;5.240;2023-01-19T12:52:24;6.2;;;1.9;;
50651;SDS011;66928;52.086;5.240;2023-01-19T12:54:06;7.3;;;2.21;;
50651;SDS011;66928;52.086;5.240;2023-01-19T12:55:59;5.9;;;2.1;;
50651;SDS011;66928;52.086;5.240;2023-01-19T12:57:46;5.9;;;2.1;;
50651;SDS011;66928;52.086;5.240;2023-01-19T12:59:31;6.5;;;1.7;;
50651;SDS011;66928;52.086;5.240;2023-01-19T13:02:51;7.2;;;2.21;;
50651;SDS011;66928;52.086;5.240;2023-01-19T13:04:30;4.0;;;1.7;;
50651;SDS011;66928;52.086;5.240;2023-01-19T13:06:08;4.3;;;1.6;;
50651;SDS011;66928;52.086;5.240;2023-01-19T13:08:18;4.61;;;1.8;;
50651;SDS011;66928;52.086;5.240;2023-01-19T13:09:56;3.9;;;1.8;;
50651;SDS011;66928;52.086;5.240;2023-01-19T13:13:15;5.3;;;1.7;;
50651;SDS011;66928;52.086;5.240;2023-01-19T13:15:27;4.41;;;1.9;;
50651;SDS011;66928;52.086;5.240;2023-01-19T13:18:27;5.3;;;2.0;;
50651;SDS011;66928;52.086;5.240;2023-01-19T13:23:23;4.91;;;1.9;;
50651;SDS011;66928;52.086;5.240;2023-01-19T13:25:38;5.3;;;1.7;;
50651;SDS011;66928;52.086;5.240;2023-01-19T13:27:16;4.7;;;1.7;;
50651;SDS011;66928;52.086;5.240;2023-01-19T13:32:11;3.8;;;2.0;;
50651;SDS011;66928;52.086;5.240;2023-01-19T13:33:51;5.4;;;2.21;;
50651;SDS011;66928;52.086;5.240;2023-01-19T13:35:30;4.3;;;1.7;;
50651;SDS011;66928;52.086;5.240;2023-01-19T13:37:11;5.6;;;2.21;;
50651;SDS011;66928;52.086;5.240;2023-01-19T13:40:32;5.3;;;2.31;;
50651;SDS011;66928;52.086;5.240;2023-01-19T13:42:13;7.8;;;2.21;;
50651;SDS011;66928;52.086;5.240;2023-01-19T13:43:59;6.1;;;2.31;;
50651;SDS011;66928;52.086;5.240;2023-01-19T13:45:39;5.2;;;2.4;;
50651;SDS011;66928;52.086;5.240;2023-01-19T13:48:58;4.91;;;2.0;;
50651;SDS011;66928;52.086;5.240;2023-01-19T13:50:41;5.2;;;2.1;;
50651;SDS011;66928;52.086;5.240;2023-01-19T13:52:30;6.4;;;2.1;;
50651;SDS011;66928;52.086;5.240;2023-01-19T13:54:11;5.11;;;2.1;;
50651;SDS011;66928;52.086;5.240;2023-01-19T13:56:23;5.5;;;2.21;;
50651;SDS011;66928;52.086;5.240;2023-01-19T13:58:00;6.0;;;2.1;;
50651;SDS011;66928;52.086;5.240;2023-01-19T14:01:18;6.8;;;2.31;;
50651;SDS011;66928;52.086;5.240;2023-01-19T14:02:58;7.4;;;2.0;;
50651;SDS011;66928;52.086;5.240;2023-01-19T14:04:36;5.6;;;1.9;;
50651;SDS011;66928;52.086;5.240;2023-01-19T14:06:20;4.91;;;2.1;;
50651;SDS011;66928;52.086;5.240;2023-01-19T14:09:46;7.1;;;2.4;;
50651;SDS011;66928;52.086;5.240;2023-01-19T14:11:35;5.7;;;2.0;;
50651;SDS011;66928;52.086;5.240;2023-01-19T14:13:13;5.0;;;1.9;;
50651;SDS011;66928;52.086;5.240;2023-01-19T14:14:52;5.6;;;2.31;;
50651;SDS011;66928;52.086;5.240;2023-01-19T14:18:09;3.2;;;1.8;;
50651;SDS011;66928;52.086;5.240;2023-01-19T14:20:27;5.3;;;1.8;;
50651;SDS011;66928;52.086;5.240;2023-01-19T14:22:05;5.8;;;1.8;;
50651;SDS011;66928;52.086;5.240;2023-01-19T14:23:43;6.1;;;1.9;;
50651;SDS011;66928;52.086;5.240;2023-01-19T14:25:30;4.0;;;1.7;;
50651;SDS011;66928;52.086;5.240;2023-01-19T14:27:08;4.8;;;2.0;;
50651;SDS011;66928;52.086;5.240;2023-01-19T14:30:31;4.1;;;2.0;;
50651;SDS011;66928;52.086;5.240;2023-01-19T14:32:11;4.5;;;2.0;;
50651;SDS011;66928;52.086;5.240;2023-01-19T14:33:51;5.0;;;2.21;;
50651;SDS011;66928;52.086;5.240;2023-01-19T14:35:30;4.41;;;1.8;;
50651;SDS011;66928;52.086;5.240;2023-01-19T14:38:52;4.5;;;1.8;;
50651;SDS011;66928;52.086;5.240;2023-01-19T14:40:30;5.3;;;1.5;;
50651;SDS011;66928;52.086;5.240;2023-01-19T14:42:10;3.9;;;2.0;;
50651;SDS011;66928;52.086;5.240;2023-01-19T14:43:51;4.3;;;1.8;;
50651;SDS011;66928;52.086;5.240;2023-01-19T14:47:17;3.8;;;1.7;;
50651;SDS011;66928;52.086;5.240;2023-01-19T14:49:02;5.6;;;1.7;;
50651;SDS011;66928;52.086;5.240;2023-01-19T14:50:41;5.11;;;1.8;;
50651;SDS011;66928;52.086;5.240;2023-01-19T14:52:19;2.21;;;1.5;;
50651;SDS011;66928;52.086;5.240;2023-01-19T14:55:38;5.4;;;1.9;;
50651;SDS011;66928;52.086;5.240;2023-01-19T14:57:21;5.0;;;1.7;;
50651;SDS011;66928;52.086;5.240;2023-01-19T14:58:59;2.8;;;1.7;;
50651;SDS011;66928;52.086;5.240;2023-01-19T15:00:36;6.6;;;1.9;;
50651;SDS011;66928;52.086;5.240;2023-01-19T15:03:50;6.2;;;1.9;;
50651;SDS011;66928;52.086;5.240;2023-01-19T15:05:26;4.8;;;2.21;;
50651;SDS011;66928;52.086;5.240;2023-01-19T15:07:03;4.1;;;2.0;;
50651;SDS011;66928;52.086;5.240;2023-01-19T15:10:16;5.11;;;1.7;;
50651;SDS011;66928;52.086;5.240;2023-01-19T15:11:56;5.11;;;2.21;;
50651;SDS011;66928;52.086;5.240;2023-01-19T15:13:34;4.7;;;1.9;;
50651;SDS011;66928;52.086;5.240;2023-01-19T15:16:52;4.2;;;1.9;;
50651;SDS011;66928;52.086;5.240;2023-01-19T15:18:28;3.8;;;1.4;;
50651;SDS011;66928;52.086;5.240;2023-01-19T15:20:05;5.11;;;2.4;;
50651;SDS011;66928;52.086;5.240;2023-01-19T15:21:49;4.1;;;1.9;;
50651;SDS011;66928;52.086;5.240;2023-01-19T15:25:02;4.41;;;1.6;;
50651;SDS011;66928;52.086;5.240;2023-01-19T15:26:39;5.2;;;1.8;;
50651;SDS011;66928;52.086;5.240;2023-01-19T15:28:17;7.2;;;1.8;;
50651;SDS011;66928;52.086;5.240;2023-01-19T15:29:55;4.2;;;1.7;;
50651;SDS011;66928;52.086;5.240;2023-01-19T15:33:08;4.0;;;1.8;;
50651;SDS011;66928;52.086;5.240;2023-01-19T15:34:51;5.3;;;1.9;;
50651;SDS011;66928;52.086;5.240;2023-01-19T15:36:27;4.0;;;1.9;;
50651;SDS011;66928;52.086;5.240;2023-01-19T15:39:40;4.41;;;1.9;;
50651;SDS011;66928;52.086;5.240;2023-01-19T15:41:17;4.3;;;1.8;;
50651;SDS011;66928;52.086;5.240;2023-01-19T15:42:58;4.61;;;1.9;;
50651;SDS011;66928;52.086;5.240;2023-01-19T15:44:35;4.41;;;1.8;;
50651;SDS011;66928;52.086;5.240;2023-01-19T15:47:49;6.1;;;2.21;;
50651;SDS011;66928;52.086;5.240;2023-01-19T15:49:28;5.2;;;2.31;;
50651;SDS011;66928;52.086;5.240;2023-01-19T15:51:04;4.2;;;2.31;;
50651;SDS011;66928;52.086;5.240;2023-01-19T15:54:18;4.91;;;2.5;;
50651;SDS011;66928;52.086;5.240;2023-01-19T15:55:55;4.3;;;1.9;;
50651;SDS011;66928;52.086;5.240;2023-01-19T15:57:34;4.0;;;2.0;;
50651;SDS011;66928;52.086;5.240;2023-01-19T15:59:10;3.6;;;2.1;;
50651;SDS011;66928;52.086;5.240;2023-01-19T16:02:29;5.0;;;2.5;;
50651;SDS011;66928;52.086;5.240;2023-01-19T16:04:05;4.8;;;2.31;;
50651;SDS011;66928;52.086;5.240;2023-01-19T16:05:43;6.4;;;2.21;;
50651;SDS011;66928;52.086;5.240;2023-01-19T16:09:00;5.2;;;2.4;;
50651;SDS011;66928;52.086;5.240;2023-01-19T16:10:36;5.5;;;2.7;;
50651;SDS011;66928;52.086;5.240;2023-01-19T16:12:12;4.91;;;2.31;;
50651;SDS011;66928;52.086;5.240;2023-01-19T16:13:48;4.91;;;2.4;;
50651;SDS011;66928;52.086;5.240;2023-01-19T16:17:02;3.9;;;2.4;;
50651;SDS011;66928;52.086;5.240;2023-01-19T16:18:38;7.6;;;3.3;;
50651;SDS011;66928;52.086;5.240;2023-01-19T16:20:14;5.4;;;3.1;;
50651;SDS011;66928;52.086;5.240;2023-01-19T16:23:28;5.5;;;3.2;;
50651;SDS011;66928;52.086;5.240;2023-01-19T16:25:04;6.9;;;3.0;;
50651;SDS011;66928;52.086;5.240;2023-01-19T16:26:40;6.9;;;3.7;;
50651;SDS011;66928;52.086;5.240;2023-01-19T16:29:53;6.5;;;3.2;;
50651;SDS011;66928;52.086;5.240;2023-01-19T16:31:29;6.3;;;3.3;;
50651;SDS011;66928;52.086;5.240;2023-01-19T16:33:05;6.2;;;3.0;;
50651;SDS011;66928;52.086;5.240;2023-01-19T16:36:18;6.4;;;3.2;;
50651;SDS011;66928;52.086;5.240;2023-01-19T16:37:58;6.4;;;2.9;;
50651;SDS011;66928;52.086;5.240;2023-01-19T16:39:35;5.8;;;3.2;;
50651;SDS011;66928;52.086;5.240;2023-01-19T16:41:12;8.1;;;4.41;;
50651;SDS011;66928;52.086;5.240;2023-01-19T16:44:24;10.4;;;4.91;;
50651;SDS011;66928;52.086;5.240;2023-01-19T16:46:01;6.7;;;4.2;;
50651;SDS011;66928;52.086;5.240;2023-01-19T16:47:38;8.81;;;4.2;;
50651;SDS011;66928;52.086;5.240;2023-01-19T16:50:57;7.7;;;4.0;;
50651;SDS011;66928;52.086;5.240;2023-01-19T16:52:37;7.8;;;5.0;;
50651;SDS011;66928;52.086;5.240;2023-01-19T16:54:13;6.6;;;4.3;;
50651;SDS011;66928;52.086;5.240;2023-01-19T16:55:52;9.81;;;4.2;;
50651;SDS011;66928;52.086;5.240;2023-01-19T16:59:04;7.6;;;4.1;;
50651;SDS011;66928;52.086;5.240;2023-01-19T17:00:40;8.5;;;3.7;;
50651;SDS011;66928;52.086;5.240;2023-01-19T17:02:17;7.0;;;3.5;;
50651;SDS011;66928;52.086;5.240;2023-01-19T17:05:30;8.9;;;4.3;;
50651;SDS011;66928;52.086;5.240;2023-01-19T17:07:06;8.1;;;4.41;;
50651;SDS011;66928;52.086;5.240;2023-01-19T17:08:42;6.0;;;3.8;;
50651;SDS011;66928;52.086;5.240;2023-01-19T17:10:19;9.5;;;4.3;;
50651;SDS011;66928;52.086;5.240;2023-01-19T17:13:33;9.5;;;4.3;;
50651;SDS011;66928;52.086;5.240;2023-01-19T17:15:09;9.4;;;5.0;;
50651;SDS011;66928;52.086;5.240;2023-01-19T17:16:46;9.4;;;5.0;;
50651;SDS011;66928;52.086;5.240;2023-01-19T17:19:59;10.5;;;5.5;;
50651;SDS011;66928;52.086;5.240;2023-01-19T17:21:36;8.9;;;5.4;;
50651;SDS011;66928;52.086;5.240;2023-01-19T17:23:12;8.4;;;5.3;;
50651;SDS011;66928;52.086;5.240;2023-01-19T17:26:27;6.7;;;4.3;;
50651;SDS011;66928;52.086;5.240;2023-01-19T17:28:04;7.2;;;4.0;;
50651;SDS011;66928;52.086;5.240;2023-01-19T17:29:40;8.0;;;4.3;;
50651;SDS011;66928;52.086;5.240;2023-01-19T17:31:17;9.21;;;5.5;;
50651;SDS011;66928;52.086;5.240;2023-01-19T17:34:34;10.21;;;5.5;;
50651;SDS011;66928;52.086;5.240;2023-01-19T17:36:12;14.3;;;8.2;;
50651;SDS011;66928;52.086;5.240;2023-01-19T17:37:51;9.81;;;5.11;;
50651;SDS011;66928;52.086;5.240;2023-01-19T17:41:10;10.7;;;4.91;;
50651;SDS011;66928;52.086;5.240;2023-01-19T17:42:48;8.71;;;5.11;;
50651;SDS011;66928;52.086;5.240;2023-01-19T17:44:24;10.21;;;4.8;;
50651;SDS011;66928;52.086;5.240;2023-01-19T17:46:00;11.4;;;5.9;;
50651;SDS011;66928;52.086;5.240;2023-01-19T17:49:13;11.6;;;5.0;;
50651;SDS011;66928;52.086;5.240;2023-01-19T17:50:49;9.4;;;4.7;;
50651;SDS011;66928;52.086;5.240;2023-01-19T17:52:26;8.9;;;5.5;;
50651;SDS011;66928;52.086;5.240;2023-01-19T17:55:40;8.2;;;5.0;;
50651;SDS011;66928;52.086;5.240;2023-01-19T17:57:16;10.21;;;5.9;;
50651;SDS011;66928;52.086;5.240;2023-01-19T17:58:52;10.5;;;6.4;;
50651;SDS011;66928;52.086;5.240;2023-01-19T18:00:29;16.11;;;7.5;;
50651;SDS011;66928;52.086;5.240;2023-01-19T18:03:44;13.3;;;6.4;;
50651;SDS011;66928;52.086;5.240;2023-01-19T18:05:21;11.0;;;6.0;;
50651;SDS011;66928;52.086;5.240;2023-01-19T18:06:59;10.5;;;5.9;;
50651;SDS011;66928;52.086;5.240;2023-01-19T18:10:14;9.6;;;4.91;;
50651;SDS011;66928;52.086;5.240;2023-01-19T18:11:52;7.0;;;4.2;;
50651;SDS011;66928;52.086;5.240;2023-01-19T18:13:28;8.6;;;4.41;;
50651;SDS011;66928;52.086;5.240;2023-01-19T18:16:44;7.8;;;4.2;;
50651;SDS011;66928;52.086;5.240;2023-01-19T18:18:20;8.1;;;3.8;;
50651;SDS011;66928;52.086;5.240;2023-01-19T18:19:56;7.3;;;3.7;;
50651;SDS011;66928;52.086;5.240;2023-01-19T18:21:33;5.7;;;3.5;;
50651;SDS011;66928;52.086;5.240;2023-01-19T18:24:47;5.5;;;3.0;;
50651;SDS011;66928;52.086;5.240;2023-01-19T18:26:23;7.9;;;3.3;;
50651;SDS011;66928;52.086;5.240;2023-01-19T18:27:59;7.2;;;3.3;;
50651;SDS011;66928;52.086;5.240;2023-01-19T18:31:12;6.2;;;3.3;;
50651;SDS011;66928;52.086;5.240;2023-01-19T18:32:52;6.9;;;3.4;;
50651;SDS011;66928;52.086;5.240;2023-01-19T18:34:28;3.8;;;2.6;;
50651;SDS011;66928;52.086;5.240;2023-01-19T18:36:04;3.8;;;2.5;;
50651;SDS011;66928;52.086;5.240;2023-01-19T18:39:19;3.9;;;2.1;;
50651;SDS011;66928;52.086;5.240;2023-01-19T18:40:59;4.8;;;2.5;;
50651;SDS011;66928;52.086;5.240;2023-01-19T18:42:38;4.41;;;2.5;;
50651;SDS011;66928;52.086;5.240;2023-01-19T18:45:50;3.9;;;2.6;;
50651;SDS011;66928;52.086;5.240;2023-01-19T18:47:26;4.1;;;2.6;;
50651;SDS011;66928;52.086;5.240;2023-01-19T18:49:02;5.8;;;3.3;;
50651;SDS011;66928;52.086;5.240;2023-01-19T18:52:17;4.7;;;3.4;;
50651;SDS011;66928;52.086;5.240;2023-01-19T18:53:54;5.5;;;3.0;;
50651;SDS011;66928;52.086;5.240;2023-01-19T18:55:32;6.2;;;3.3;;
50651;SDS011;66928;52.086;5.240;2023-01-19T18:57:08;5.5;;;3.2;;
50651;SDS011;66928;52.086;5.240;2023-01-19T19:00:20;6.0;;;3.5;;
50651;SDS011;66928;52.086;5.240;2023-01-19T19:02:00;4.8;;;3.4;;
50651;SDS011;66928;52.086;5.240;2023-01-19T19:03:36;4.1;;;3.4;;
50651;SDS011;66928;52.086;5.240;2023-01-19T19:06:49;4.41;;;3.5;;
50651;SDS011;66928;52.086;5.240;2023-01-19T19:08:25;5.7;;;3.4;;
50651;SDS011;66928;52.086;5.240;2023-01-19T19:10:01;5.11;;;3.5;;
50651;SDS011;66928;52.086;5.240;2023-01-19T19:11:37;3.4;;;2.5;;
50651;SDS011;66928;52.086;5.240;2023-01-19T19:14:51;4.1;;;2.21;;
50651;SDS011;66928;52.086;5.240;2023-01-19T19:16:27;4.8;;;2.4;;
50651;SDS011;66928;52.086;5.240;2023-01-19T19:18:07;3.7;;;2.1;;
50651;SDS011;66928;52.086;5.240;2023-01-19T19:21:20;5.11;;;2.1;;
50651;SDS011;66928;52.086;5.240;2023-01-19T19:22:58;3.3;;;1.7;;
50651;SDS011;66928;52.086;5.240;2023-01-19T19:24:34;2.31;;;1.5;;
50651;SDS011;66928;52.086;5.240;2023-01-19T19:27:49;2.21;;;1.7;;
50651;SDS011;66928;52.086;5.240;2023-01-19T19:29:27;3.1;;;1.4;;
50651;SDS011;66928;52.086;5.240;2023-01-19T19:31:05;3.2;;;1.4;;